Weather History for KMKN - November, 2012

Change the Weather History Date:

Sunday, November 11, 2012

  Actual Average (KSEP) Record (KSEP)
Temperature  
Mean Temperature 56 °F -  
Max Temperature 69 °F 65 °F 82 °F (1949)
Min Temperature 42 °F 40 °F 11 °F (1950)
Degree Days  
Heating Degree Days 8    
Growing Degree Days 6 (Base 50)    
Moisture  
Dew Point 41 °F    
Average Humidity 48    
Maximum Humidity 81    
Minimum Humidity 17    
Precipitation  
Precipitation 0.00 in - - ()
Sea Level Pressure  
Sea Level Pressure 29.96 in    
Wind  
Wind Speed 16 mph (WNW)    
Max Wind Speed 26 mph    
Max Gust Speed 37 mph    
Visibility 10 miles    
Events      
Averages and records for this station are not official NWS values.
T = Trace of Precipitation, MM = Missing Value Source: NWS Daily Summary

Daily Weather History Graph

Daily Weather History Graph

Search for Another Location

Airport or City:

Trip Planner

Search our weather history database for the weather conditions in past years. The results will help you decide how hot, cold, wet, or windy it might be!

Date:

Astronomy

Nov. 11, 2012 Rise Set
Actual Time 6:59 AM CST 5:36 PM CST
Civil Twilight 6:34 AM CST 6:02 PM CST
Nautical Twilight 6:04 AM CST 6:31 PM CST
Astronomical Twilight 5:35 AM CST 7:00 PM CST
Moon 4:22 AM CST (11/11) 3:55 PM CST (11/11)
Length of Visible Light 11h 28m
Length of Day
10h 36m
Waning Crescent, 7% of the Moon is Illuminated
Nov 11
Waning Crescent
Nov 13
New
Nov 20
First Quarter
Nov 28
Full
Dec 6
Last Quarter

Hourly Weather History & Observations

Time (CST) Temp. Windchill Dew Point Humidity Pressure Visibility Wind Dir Wind Speed Gust Speed Precip Events Conditions
12:15 AM 69.8 °F - 60.8 °F 73% 29.81 in 10.0 mi South 20.7 mph 33.4 mph N/A   Overcast
12:55 AM 69.8 °F - 60.8 °F 73% 29.79 in 10.0 mi South 26.5 mph 36.8 mph N/A   Scattered Clouds
1:15 AM 68.0 °F - 60.8 °F 78% 29.78 in 10.0 mi South 25.3 mph 31.1 mph N/A   Scattered Clouds
1:35 AM 68.0 °F - 60.8 °F 78% 29.77 in 10.0 mi South 18.4 mph 31.1 mph N/A   Clear
1:55 AM 68.0 °F - 60.8 °F 78% 29.77 in 10.0 mi South 19.6 mph 28.8 mph N/A   Clear
2:15 AM 68.0 °F - 60.8 °F 78% 29.77 in 10.0 mi South 20.7 mph 29.9 mph N/A   Scattered Clouds
2:35 AM 68.0 °F - 60.8 °F 78% 29.77 in 10.0 mi South 17.3 mph 23.0 mph N/A   Scattered Clouds
2:55 AM 68.0 °F - 60.8 °F 78% 29.77 in 10.0 mi South 15.0 mph 26.5 mph N/A   Clear
3:15 AM 69.8 °F - 60.8 °F 73% 29.77 in 10.0 mi South 16.1 mph 25.3 mph N/A   Mostly Cloudy
3:35 AM 69.8 °F - 60.8 °F 73% 29.76 in 10.0 mi South 18.4 mph 25.3 mph N/A   Overcast
3:55 AM 69.8 °F - 60.8 °F 73% 29.77 in 10.0 mi South 16.1 mph 26.5 mph N/A   Overcast
4:15 AM 69.8 °F - 60.8 °F 73% 29.77 in 10.0 mi SSW 15.0 mph 24.2 mph N/A   Overcast
4:35 AM 69.8 °F - 59.0 °F 68% 29.78 in 10.0 mi South 19.6 mph 27.6 mph N/A   Overcast
4:55 AM 69.8 °F - 59.0 °F 68% 29.78 in 10.0 mi South 20.7 mph 28.8 mph N/A   Overcast
5:15 AM 69.8 °F - 59.0 °F 68% 29.78 in 10.0 mi South 24.2 mph 29.9 mph N/A   Overcast
5:55 AM 69.8 °F - 59.0 °F 68% 29.77 in 10.0 mi South 20.7 mph 28.8 mph N/A   Scattered Clouds
6:15 AM 69.8 °F - 59.0 °F 68% 29.80 in 10.0 mi SSW 13.8 mph 28.8 mph N/A   Scattered Clouds
6:35 AM 69.8 °F - 59.0 °F 68% 29.82 in 10.0 mi SSW 10.4 mph 21.9 mph N/A   Mostly Cloudy
7:15 AM 69.8 °F - 59.0 °F 68% 29.86 in 10.0 mi SSW 15.0 mph 18.4 mph N/A   Overcast
7:35 AM 69.8 °F - 59.0 °F 68% 29.88 in 10.0 mi SW 8.1 mph 19.6 mph N/A   Overcast
7:55 AM 69.8 °F - 59.0 °F 68% 29.89 in 10.0 mi SSW 11.5 mph 18.4 mph N/A   Overcast
8:15 AM 69.8 °F - 59.0 °F 68% 29.89 in 10.0 mi SW 9.2 mph 16.1 mph N/A   Overcast
8:35 AM 69.8 °F - 60.8 °F 73% 29.90 in 10.0 mi SSW 8.1 mph - N/A   Drizzle
9:15 AM 69.8 °F - 60.8 °F 73% 29.91 in 10.0 mi SW 8.1 mph - N/A   Overcast
9:35 AM 68.0 °F - 48.2 °F 49% 29.95 in 10.0 mi NW 18.4 mph 26.5 mph N/A   Overcast
9:55 AM 62.6 °F - 39.2 °F 42% 29.96 in 10.0 mi NW 9.2 mph - N/A   Overcast
10:15 AM 62.6 °F - 37.4 °F 39% 29.96 in 10.0 mi NNW 13.8 mph 19.6 mph N/A   Overcast
10:35 AM 62.6 °F - 39.2 °F 42% 29.97 in 10.0 mi NW 11.5 mph 17.3 mph N/A   Overcast
10:55 AM 64.4 °F - 37.4 °F 37% 29.97 in 10.0 mi NNW 11.5 mph - N/A   Overcast
11:15 AM 64.4 °F - 37.4 °F 37% 29.97 in 10.0 mi NNW 10.4 mph - N/A   Overcast
11:35 AM 66.2 °F - 32.0 °F 28% 29.98 in 10.0 mi NNW 16.1 mph - N/A   Overcast
11:55 AM 66.2 °F - 32.0 °F 28% 29.97 in 10.0 mi NW 13.8 mph 19.6 mph N/A   Overcast
12:15 PM 66.2 °F - 28.4 °F 24% 29.98 in 10.0 mi NNW 13.8 mph 20.7 mph N/A   Overcast
12:35 PM 66.2 °F - 32.0 °F 28% 29.97 in 10.0 mi NNW 11.5 mph - N/A   Overcast
12:55 PM 68.0 °F - 28.4 °F 23% 29.97 in 10.0 mi NNW 12.7 mph 23.0 mph N/A   Overcast
1:15 PM 68.0 °F - 28.4 °F 23% 29.96 in 10.0 mi NNW 11.5 mph - N/A   Overcast
1:35 PM 68.0 °F - 26.6 °F 21% 29.97 in 10.0 mi NW 17.3 mph 21.9 mph N/A   Overcast
1:55 PM 68.0 °F - 24.8 °F 20% 29.97 in 10.0 mi NNW 12.7 mph 18.4 mph N/A   Overcast
2:15 PM 69.8 °F - 26.6 °F 20% 29.97 in 10.0 mi NNW 13.8 mph 19.6 mph N/A   Mostly Cloudy
2:35 PM 68.0 °F - 26.6 °F 21% 29.97 in 10.0 mi NNW 12.7 mph 18.4 mph N/A   Overcast
2:55 PM 68.0 °F - 26.6 °F 21% 29.98 in 10.0 mi NW 11.5 mph 18.4 mph N/A   Overcast
3:15 PM 69.8 °F - 26.6 °F 20% 29.99 in 10.0 mi NW 15.0 mph 19.6 mph N/A   Overcast
3:35 PM 68.0 °F - 26.6 °F 21% 29.99 in 10.0 mi NNW 13.8 mph 19.6 mph N/A   Mostly Cloudy
3:55 PM 68.0 °F - 28.4 °F 23% 30.00 in 10.0 mi NW 11.5 mph 17.3 mph N/A   Mostly Cloudy
4:15 PM 68.0 °F - 28.4 °F 23% 30.01 in 10.0 mi NW 9.2 mph 19.6 mph N/A   Overcast
4:35 PM 68.0 °F - 28.4 °F 23% 30.02 in 10.0 mi NW 11.5 mph 16.1 mph N/A   Mostly Cloudy
5:15 PM 66.2 °F - 28.4 °F 24% 30.03 in 10.0 mi NW 9.2 mph - N/A   Mostly Cloudy
5:35 PM 64.4 °F - 28.4 °F 26% 30.04 in 10.0 mi NW 9.2 mph - N/A   Overcast
5:55 PM 64.4 °F - 26.6 °F 24% 30.06 in 10.0 mi NW 9.2 mph - N/A   Scattered Clouds
6:15 PM 62.6 °F - 26.6 °F 26% 30.07 in 10.0 mi NW 8.1 mph - N/A   Mostly Cloudy
6:35 PM 62.6 °F - 26.6 °F 26% 30.08 in 10.0 mi NW 6.9 mph - N/A   Mostly Cloudy
6:55 PM 60.8 °F - 26.6 °F 27% 30.09 in 10.0 mi WNW 5.8 mph - N/A   Mostly Cloudy
7:15 PM 60.8 °F - 26.6 °F 27% 30.11 in 10.0 mi NW 10.4 mph - N/A   Scattered Clouds
7:35 PM 59.0 °F - 23.0 °F 25% 30.13 in 10.0 mi NW 9.2 mph - N/A   Clear
8:15 PM 59.0 °F - 14.0 °F 17% 30.15 in 10.0 mi NW 8.1 mph - N/A   Clear
8:35 PM 57.2 °F - 12.2 °F 17% 30.16 in 10.0 mi NW 12.7 mph - N/A   Clear
8:55 PM 55.4 °F - 12.2 °F 18% 30.17 in 10.0 mi NNW 10.4 mph - N/A   Clear
9:15 PM 55.4 °F - 23.0 °F 29% 30.19 in 10.0 mi North 13.8 mph 20.7 mph N/A   Clear
9:55 PM 48.2 °F - 41.0 °F 76% 30.23 in 10.0 mi North 18.4 mph 23.0 mph N/A   Clear
10:15 PM 46.4 °F 40.7 °F 39.2 °F 76% 30.25 in 10.0 mi North 12.7 mph - N/A   Clear
10:35 PM 46.4 °F 41.5 °F 37.4 °F 71% 30.26 in 10.0 mi North 10.4 mph - N/A   Clear
10:55 PM 44.6 °F 40.7 °F 37.4 °F 76% 30.27 in 10.0 mi North 6.9 mph - N/A   Clear
11:15 PM 44.6 °F 41.4 °F 37.4 °F 76% 30.27 in 10.0 mi North 5.8 mph - N/A   Clear
11:55 PM 42.8 °F 37.5 °F 37.4 °F 81% 30.29 in 10.0 mi North 9.2 mph - N/A   Clear